Time;durP1;ratioP1;P1;durP2;ratioP2;P2;SDS_P1;SDS_P2;PMS_P1;PMS_P2;Temp;Humidity;BMP_temperature;BMP_pressure;BME280_temperature;BME280_humidity;BME280_pressure;Samples;Min_cycle;Max_cycle;Signal;HPM_P1;HPM_P2
2022/09/18 00:00:09;;;;;;;4.40;1.20;;;9.20;99.90;;;;;;4836460;29;20506;-89
2022/09/18 00:02:35;;;;;;;1.73;1.00;;;9.20;99.90;;;;;;4847137;29;20826;-89
2022/09/18 00:05:04;;;;;;;1.70;1.40;;;9.30;99.90;;;;;;4828894;29;21637;-89
2022/09/18 00:07:31;;;;;;;1.60;1.00;;;9.30;99.90;;;;;;4841937;29;20521;-89
2022/09/18 00:09:57;;;;;;;2.80;1.80;;;9.30;99.90;;;;;;4849627;29;20468;-89
2022/09/18 00:12:25;;;;;;;1.57;1.37;;;9.30;99.90;;;;;;4845940;29;20491;-89
2022/09/18 00:14:52;;;;;;;2.10;1.00;;;9.30;99.90;;;;;;4845256;29;20449;-89
2022/09/18 00:17:21;;;;;;;3.00;1.20;;;9.30;99.90;;;;;;4846134;29;20185;-89
2022/09/18 00:19:47;;;;;;;2.63;1.20;;;9.20;99.90;;;;;;4857020;29;20582;-90
2022/09/18 00:22:13;;;;;;;2.17;1.27;;;9.20;99.90;;;;;;4844217;29;20656;-89
2022/09/18 00:24:46;;;;;;;4.40;1.50;;;9.20;99.90;;;;;;4845747;29;20456;-90
2022/09/18 00:27:44;;;;;;;3.40;1.97;;;9.20;99.90;;;;;;4841454;29;20604;-89
2022/09/18 00:30:13;;;;;;;1.83;1.60;;;9.20;99.90;;;;;;4858010;29;20468;-90
2022/09/18 00:32:47;;;;;;;3.57;1.57;;;9.10;99.90;;;;;;4863327;29;20807;-91
2022/09/18 00:35:12;;;;;;;3.23;1.70;;;9.10;99.90;;;;;;4844654;29;20457;-90
2022/09/18 00:37:38;;;;;;;2.37;1.77;;;9.20;99.90;;;;;;4853438;29;20639;-89
2022/09/18 00:40:09;;;;;;;1.97;1.50;;;9.20;99.90;;;;;;4867240;29;20200;-89
2022/09/18 00:42:39;;;;;;;1.40;1.30;;;9.20;99.90;;;;;;4863963;29;20491;-90
2022/09/18 00:45:09;;;;;;;1.30;0.90;;;9.20;99.90;;;;;;4839831;29;20460;-89
2022/09/18 00:47:41;;;;;;;2.23;1.63;;;9.20;99.90;;;;;;4853821;29;20489;-90
2022/09/18 00:50:29;;;;;;;2.20;1.30;;;9.20;99.90;;;;;;4859896;29;20447;-90
2022/09/18 00:53:04;;;;;;;3.33;1.30;;;9.20;99.90;;;;;;4850249;29;20461;-90
2022/09/18 00:55:34;;;;;;;2.73;1.50;;;9.30;99.90;;;;;;4849018;29;20571;-90
2022/09/18 00:58:02;;;;;;;3.10;1.40;;;9.30;99.90;;;;;;4858603;29;20982;-91
2022/09/18 01:00:30;;;;;;;3.87;1.53;;;9.30;99.90;;;;;;4861392;29;20488;-90
2022/09/18 01:02:57;;;;;;;5.23;1.47;;;9.40;99.90;;;;;;4855507;29;20571;-90
2022/09/18 01:05:47;;;;;;;3.80;1.40;;;9.30;99.90;;;;;;4853086;29;20438;-90
2022/09/18 01:08:24;;;;;;;1.10;1.00;;;9.30;99.90;;;;;;4854218;29;21035;-90
2022/09/18 01:11:15;;;;;;;2.60;1.50;;;9.30;99.90;;;;;;4847040;29;21127;-91
2022/09/18 01:14:07;;;;;;;1.20;1.10;;;9.20;99.90;;;;;;4844117;29;20449;-91
2022/09/18 01:16:48;;;;;;;2.10;1.30;;;9.30;99.90;;;;;;4851987;29;21580;-90
2022/09/18 01:19:52;;;;;;;1.90;1.37;;;9.30;99.90;;;;;;4836936;29;20453;-90
2022/09/18 01:22:30;;;;;;;1.43;1.30;;;9.30;99.90;;;;;;4844042;29;21331;-90
2022/09/18 01:25:29;;;;;;;2.43;1.87;;;9.30;99.90;;;;;;4845129;29;20495;-90
2022/09/18 01:28:26;;;;;;;1.53;1.20;;;9.30;99.90;;;;;;4866520;29;20457;-90
2022/09/18 01:30:56;;;;;;;5.37;1.63;;;9.30;99.90;;;;;;4841910;29;21389;-91
2022/09/18 01:33:38;;;;;;;4.57;1.40;;;9.40;99.90;;;;;;4864355;29;20460;-90
2022/09/18 01:36:08;;;;;;;3.20;1.37;;;9.40;99.90;;;;;;4850853;29;20478;-90
2022/09/18 01:38:53;;;;;;;1.10;1.10;;;9.40;99.90;;;;;;4850611;29;20856;-89
2022/09/18 01:41:27;;;;;;;3.07;1.30;;;9.40;99.90;;;;;;4845956;29;20812;-90
2022/09/18 01:44:14;;;;;;;4.27;1.83;;;9.40;99.90;;;;;;4848444;29;20457;-91
2022/09/18 01:46:43;;;;;;;4.73;1.80;;;9.40;99.90;;;;;;4851046;29;20484;-89
2022/09/18 01:49:16;;;;;;;1.87;1.40;;;9.40;99.90;;;;;;4848745;29;20463;-91
2022/09/18 01:52:07;;;;;;;2.60;1.40;;;9.50;99.90;;;;;;4850325;29;21316;-89
2022/09/18 01:54:39;;;;;;;1.70;1.40;;;9.40;99.90;;;;;;4854319;29;20465;-89
2022/09/18 01:57:21;;;;;;;3.00;1.43;;;9.40;99.90;;;;;;4853570;29;20453;-90
2022/09/18 02:00:04;;;;;;;3.50;1.17;;;9.40;99.90;;;;;;4850591;29;20472;-90
2022/09/18 02:02:37;;;;;;;3.40;1.87;;;9.40;99.90;;;;;;4855027;29;20460;-89
2022/09/18 02:05:08;;;;;;;4.13;1.43;;;9.40;99.90;;;;;;4868884;29;20462;-89
2022/09/18 02:07:38;;;;;;;2.00;1.33;;;9.40;99.90;;;;;;4849454;29;20916;-89
2022/09/18 02:10:04;;;;;;;2.20;1.40;;;9.40;99.90;;;;;;4849274;29;20456;-89
2022/09/18 02:12:35;;;;;;;2.70;1.17;;;9.40;99.90;;;;;;4869822;29;20975;-89
2022/09/18 02:15:08;;;;;;;1.90;1.20;;;9.40;99.90;;;;;;4861286;29;20448;-89
2022/09/18 02:18:03;;;;;;;2.97;1.50;;;9.40;99.90;;;;;;4854674;29;20972;-89
2022/09/18 02:20:30;;;;;;;1.87;1.40;;;9.40;99.90;;;;;;4857119;29;20458;-90
2022/09/18 02:23:01;;;;;;;4.57;1.60;;;9.40;99.90;;;;;;4882570;29;20831;-90
2022/09/18 02:25:34;;;;;;;2.77;1.30;;;9.30;99.90;;;;;;4879481;29;20437;-90
2022/09/18 02:28:01;;;;;;;2.60;1.50;;;9.40;99.90;;;;;;4867127;29;20441;-89
2022/09/18 02:30:28;;;;;;;1.83;1.40;;;9.40;99.90;;;;;;4861753;29;20453;-90
2022/09/18 02:32:55;;;;;;;3.40;1.40;;;9.40;99.90;;;;;;4863982;29;20464;-90
2022/09/18 02:35:24;;;;;;;3.03;1.40;;;9.40;99.90;;;;;;4865154;29;20445;-91
2022/09/18 02:38:10;;;;;;;2.57;1.60;;;9.40;99.90;;;;;;4869018;29;20427;-91
2022/09/18 02:40:40;;;;;;;2.00;1.20;;;9.40;99.90;;;;;;4865603;29;21043;-91
2022/09/18 02:43:39;;;;;;;2.53;1.60;;;9.30;99.90;;;;;;4871222;29;20450;-89
2022/09/18 02:46:17;;;;;;;2.40;1.63;;;9.30;99.90;;;;;;4848471;29;20504;-88
2022/09/18 02:49:03;;;;;;;2.50;1.40;;;9.30;99.90;;;;;;4867463;29;20446;-88
2022/09/18 02:51:40;;;;;;;2.30;1.43;;;9.30;99.90;;;;;;4871729;29;20830;-88
2022/09/18 02:54:30;;;;;;;4.30;1.70;;;9.30;99.90;;;;;;4869219;29;20581;-88
2022/09/18 02:57:01;;;;;;;2.40;1.80;;;9.30;99.90;;;;;;4877139;29;20820;-88
2022/09/18 02:59:42;;;;;;;3.80;1.80;;;9.20;99.90;;;;;;4859111;29;20446;-89
2022/09/18 03:02:07;;;;;;;2.80;1.50;;;9.30;99.90;;;;;;4857115;29;20512;-88
2022/09/18 03:04:33;;;;;;;3.23;1.80;;;9.20;99.90;;;;;;4866097;29;20445;-88
2022/09/18 03:06:59;;;;;;;5.30;2.80;;;9.20;99.90;;;;;;4865054;29;20604;-89
2022/09/18 03:09:28;;;;;;;10.37;2.40;;;9.20;99.90;;;;;;4864773;29;20671;-88
2022/09/18 03:12:11;;;;;;;2.53;1.47;;;9.20;99.90;;;;;;4871481;29;20273;-88
2022/09/18 03:14:37;;;;;;;7.03;2.17;;;9.30;99.90;;;;;;4859603;29;20473;-87
2022/09/18 03:17:03;;;;;;;1.87;1.60;;;9.30;99.90;;;;;;4861586;29;21155;-89
2022/09/18 03:19:28;;;;;;;1.73;1.13;;;9.30;99.90;;;;;;4863157;29;20185;-89
2022/09/18 03:21:54;;;;;;;3.27;1.50;;;9.40;99.90;;;;;;4866148;29;20188;-87
2022/09/18 03:24:19;;;;;;;1.60;1.50;;;9.40;99.90;;;;;;4874347;29;20304;-88
2022/09/18 03:26:46;;;;;;;6.67;1.70;;;9.40;99.90;;;;;;4849590;29;20236;-88
2022/09/18 03:29:12;;;;;;;1.60;1.33;;;9.40;99.90;;;;;;4858875;29;20185;-88
2022/09/18 03:31:39;;;;;;;3.10;1.50;;;9.30;99.90;;;;;;4851915;29;20449;-89
2022/09/18 03:34:07;;;;;;;1.27;1.17;;;9.30;99.90;;;;;;4847299;29;20508;-88
2022/09/18 03:36:33;;;;;;;2.17;1.33;;;9.40;99.90;;;;;;4865026;29;20427;-88
2022/09/18 03:38:59;;;;;;;1.33;1.23;;;9.30;99.90;;;;;;4867949;29;20458;-88
2022/09/18 03:41:27;;;;;;;1.63;1.40;;;9.30;99.90;;;;;;4844936;29;20299;-89
2022/09/18 03:44:01;;;;;;;1.50;1.40;;;9.30;99.90;;;;;;4846914;29;20189;-89
2022/09/18 03:46:39;;;;;;;5.73;1.87;;;9.20;99.90;;;;;;4849046;29;20889;-90
2022/09/18 03:49:11;;;;;;;2.43;1.40;;;9.30;99.90;;;;;;4863516;29;20504;-88
2022/09/18 03:51:37;;;;;;;1.50;1.40;;;9.30;99.90;;;;;;4846629;29;20968;-89
2022/09/18 03:54:03;;;;;;;2.40;2.03;;;9.30;99.90;;;;;;4849193;29;20241;-88
2022/09/18 03:56:37;;;;;;;3.30;1.97;;;9.30;99.90;;;;;;4861512;29;20501;-88
2022/09/18 03:59:11;;;;;;;2.40;1.53;;;9.20;99.90;;;;;;4856590;29;20307;-88
2022/09/18 04:01:37;;;;;;;1.53;1.37;;;9.20;99.90;;;;;;4847113;29;20465;-90
2022/09/18 04:04:03;;;;;;;2.07;1.30;;;9.30;99.90;;;;;;4851319;29;20189;-88
2022/09/18 04:06:28;;;;;;;2.50;1.40;;;9.30;99.90;;;;;;4844237;29;20223;-89
2022/09/18 04:08:54;;;;;;;2.10;1.40;;;9.20;99.90;;;;;;4853104;29;21072;-89
2022/09/18 04:11:19;;;;;;;1.43;1.33;;;9.30;99.90;;;;;;4848773;29;20192;-88
2022/09/18 04:13:47;;;;;;;1.07;1.07;;;9.20;99.90;;;;;;4847746;29;20437;-88
2022/09/18 04:16:16;;;;;;;1.30;1.20;;;9.20;99.90;;;;;;4864102;29;20316;-90
2022/09/18 04:18:51;;;;;;;3.10;1.60;;;9.20;99.90;;;;;;4860132;29;20453;-89
2022/09/18 04:21:17;;;;;;;1.40;1.30;;;9.20;99.90;;;;;;4861642;29;20462;-88
2022/09/18 04:23:44;;;;;;;2.10;1.60;;;9.30;99.90;;;;;;4855970;29;20213;-90
2022/09/18 04:26:09;;;;;;;2.90;1.40;;;9.30;99.90;;;;;;4866943;29;21545;-91
2022/09/18 04:28:38;;;;;;;1.27;1.17;;;9.30;99.90;;;;;;4838319;29;20613;-88
2022/09/18 04:31:07;;;;;;;1.70;1.10;;;9.30;99.90;;;;;;4843784;29;21046;-87
2022/09/18 04:33:33;;;;;;;1.43;1.33;;;9.30;99.90;;;;;;4861669;29;20462;-88
2022/09/18 04:35:59;;;;;;;2.30;1.20;;;9.30;99.90;;;;;;4856243;29;20452;-88
2022/09/18 04:38:28;;;;;;;1.43;1.33;;;9.30;99.90;;;;;;4851312;29;20181;-88
2022/09/18 04:40:55;;;;;;;1.37;1.20;;;9.20;99.90;;;;;;4850063;29;20453;-87
2022/09/18 04:43:22;;;;;;;2.20;1.27;;;9.20;99.90;;;;;;4849633;29;20516;-89
2022/09/18 04:45:50;;;;;;;2.10;1.40;;;9.20;99.90;;;;;;4864173;29;20666;-90
2022/09/18 04:48:17;;;;;;;2.23;1.20;;;9.20;99.90;;;;;;4832368;29;21175;-90
2022/09/18 04:50:45;;;;;;;2.30;1.17;;;9.20;99.90;;;;;;4858986;29;20441;-90
2022/09/18 04:53:11;;;;;;;1.47;1.37;;;9.20;99.90;;;;;;4862425;29;20507;-89
2022/09/18 04:55:38;;;;;;;1.20;1.10;;;9.20;99.90;;;;;;4856074;29;20433;-90
2022/09/18 04:58:05;;;;;;;3.00;1.40;;;9.20;99.90;;;;;;4833857;29;20211;-88
2022/09/18 05:00:30;;;;;;;1.30;1.20;;;9.20;99.90;;;;;;4847533;29;20441;-89
2022/09/18 05:02:56;;;;;;;1.53;1.20;;;9.20;99.90;;;;;;4851477;29;21083;-88
2022/09/18 05:05:23;;;;;;;1.80;1.20;;;9.20;99.90;;;;;;4847751;29;21678;-89
2022/09/18 05:08:30;;;;;;;1.47;1.37;;;9.30;99.90;;;;;;4864640;29;20252;-89
2022/09/18 05:11:07;;;;;;;2.87;1.33;;;9.20;99.90;;;;;;4849652;29;20524;-89
2022/09/18 05:13:33;;;;;;;3.80;1.80;;;9.20;99.90;;;;;;4846762;29;20498;-88
2022/09/18 05:16:11;;;;;;;2.10;1.50;;;9.20;99.90;;;;;;4845349;29;20452;-88
2022/09/18 05:18:37;;;;;;;1.97;1.00;;;9.20;99.90;;;;;;4864817;29;20217;-90
2022/09/18 05:21:04;;;;;;;2.40;1.60;;;9.20;99.90;;;;;;4846664;29;20446;-90
2022/09/18 05:23:29;;;;;;;2.20;1.20;;;9.20;99.90;;;;;;4849321;29;20190;-89
2022/09/18 05:25:55;;;;;;;1.50;1.40;;;9.20;99.90;;;;;;4872011;29;20992;-89
2022/09/18 05:28:21;;;;;;;1.50;1.40;;;9.30;99.90;;;;;;4846986;29;20185;-90
2022/09/18 05:30:47;;;;;;;1.50;1.40;;;9.20;99.90;;;;;;4848045;29;20185;-88
2022/09/18 05:33:13;;;;;;;1.60;1.50;;;9.30;99.90;;;;;;4870955;29;21078;-89
2022/09/18 05:35:39;;;;;;;1.20;1.20;;;9.30;99.90;;;;;;4861546;29;20793;-88
2022/09/18 05:38:05;;;;;;;2.00;1.90;;;9.30;99.90;;;;;;4859851;29;20197;-90
2022/09/18 05:40:33;;;;;;;1.90;1.57;;;9.30;99.90;;;;;;4847132;29;20190;-89
2022/09/18 05:43:02;;;;;;;2.50;1.53;;;9.30;99.90;;;;;;4855260;29;20767;-91
2022/09/18 05:45:28;;;;;;;2.80;1.60;;;9.40;99.90;;;;;;4852923;29;20446;-91
2022/09/18 05:47:55;;;;;;;2.30;1.37;;;9.30;99.90;;;;;;4860171;29;21116;-92
2022/09/18 05:50:22;;;;;;;1.57;1.47;;;9.40;99.90;;;;;;4869466;29;20804;-91
2022/09/18 05:52:59;;;;;;;1.60;1.50;;;9.30;99.90;;;;;;4851764;29;21532;-90
2022/09/18 05:55:27;;;;;;;2.00;1.70;;;9.30;99.90;;;;;;4848444;29;20966;-90
2022/09/18 05:57:54;;;;;;;2.20;1.40;;;9.30;99.90;;;;;;4850508;29;20449;-91
2022/09/18 06:00:20;;;;;;;1.67;1.60;;;9.30;99.90;;;;;;4867505;29;20842;-94
2022/09/18 06:02:59;;;;;;;2.03;1.93;;;9.40;99.90;;;;;;4843682;29;20465;-89
2022/09/18 06:05:26;;;;;;;1.93;1.83;;;9.40;99.90;;;;;;4852602;29;20448;-90
2022/09/18 06:07:55;;;;;;;5.10;1.50;;;9.50;99.90;;;;;;4857298;29;20559;-91
2022/09/18 06:10:31;;;;;;;3.40;2.10;;;9.50;99.90;;;;;;4856272;29;22982;-91
2022/09/18 06:13:15;;;;;;;2.40;1.87;;;9.40;99.90;;;;;;4852148;29;20967;-90
2022/09/18 06:15:51;;;;;;;2.53;2.13;;;9.50;99.90;;;;;;4864576;29;20441;-91
2022/09/18 06:18:22;;;;;;;2.20;1.83;;;9.50;99.90;;;;;;4846423;29;20533;-91
2022/09/18 06:20:53;;;;;;;2.30;2.10;;;9.50;99.90;;;;;;4860825;29;20457;-90
2022/09/18 06:23:43;;;;;;;5.90;2.23;;;9.50;99.90;;;;;;4845591;29;20540;-91
2022/09/18 06:26:26;;;;;;;2.23;2.13;;;9.50;99.90;;;;;;4863147;29;20488;-91
2022/09/18 06:29:06;;;;;;;2.83;2.20;;;9.50;99.90;;;;;;4865535;29;20461;-91
2022/09/18 06:31:48;;;;;;;4.53;2.33;;;9.50;99.90;;;;;;4865933;29;20449;-93
2022/09/18 06:34:14;;;;;;;2.07;1.97;;;9.60;99.90;;;;;;4851272;29;21025;-94
2022/09/18 06:36:41;;;;;;;2.50;2.30;;;9.60;99.90;;;;;;4869296;29;20457;-92
2022/09/18 06:39:06;;;;;;;5.47;2.33;;;9.70;99.90;;;;;;4850762;29;20198;-91
2022/09/18 06:41:32;;;;;;;4.57;2.00;;;9.70;99.90;;;;;;4856433;29;20461;-91
2022/09/18 06:43:58;;;;;;;2.70;2.60;;;9.60;99.90;;;;;;4855910;29;20555;-90
2022/09/18 06:46:26;;;;;;;2.43;2.03;;;9.60;99.90;;;;;;4848982;29;20208;-92
2022/09/18 06:48:52;;;;;;;2.90;2.60;;;9.70;99.90;;;;;;4857797;29;20697;-92
2022/09/18 06:51:19;;;;;;;3.07;2.23;;;9.70;99.90;;;;;;4874681;29;20437;-93
2022/09/18 06:53:52;;;;;;;2.43;2.23;;;9.80;99.90;;;;;;4859925;29;20260;-94
2022/09/18 06:56:25;;;;;;;2.60;2.40;;;9.90;99.90;;;;;;4876868;29;21085;-96
2022/09/18 06:59:02;;;;;;;5.17;2.33;;;10.00;99.90;;;;;;4858729;29;20450;-94
2022/09/18 07:01:56;;;;;;;4.20;2.50;;;9.90;99.90;;;;;;4852931;29;20476;-96
2022/09/18 07:04:32;;;;;;;12.57;11.23;;;10.00;99.90;;;;;;4855311;29;20501;-91
2022/09/18 07:07:00;;;;;;;2.20;2.10;;;10.10;99.90;;;;;;4869424;29;21238;-95
2022/09/18 07:09:40;;;;;;;2.23;2.10;;;10.20;99.90;;;;;;4825587;29;20449;-89
2022/09/18 07:12:06;;;;;;;3.00;2.30;;;10.20;99.90;;;;;;4861326;29;20544;-93
2022/09/18 07:14:34;;;;;;;3.47;2.63;;;10.30;99.90;;;;;;4868976;29;20441;-89
2022/09/18 07:17:08;;;;;;;2.50;1.97;;;10.40;99.90;;;;;;4851460;29;20194;-93
2022/09/18 07:19:35;;;;;;;6.00;2.37;;;10.50;99.90;;;;;;4857680;29;20524;-91
2022/09/18 07:22:17;;;;;;;3.47;1.90;;;10.50;99.90;;;;;;4835435;29;20535;-92
2022/09/18 07:25:25;;;;;;;3.13;1.90;;;10.60;99.90;;;;;;4930494;23;20524;-88
2022/09/18 07:28:09;;;;;;;2.53;2.20;;;10.70;99.90;;;;;;4876548;29;21185;-94
2022/09/18 07:30:42;;;;;;;2.17;2.00;;;10.70;99.90;;;;;;4891710;29;20499;-93
2022/09/18 07:33:09;;;;;;;2.97;1.93;;;10.80;99.90;;;;;;4881751;29;20539;-96
2022/09/18 07:35:35;;;;;;;3.73;2.43;;;10.70;99.90;;;;;;4889649;29;20929;-93
2022/09/18 07:38:23;;;;;;;4.10;2.20;;;10.70;99.90;;;;;;4875548;29;20199;-92
2022/09/18 07:40:48;;;;;;;3.90;2.10;;;10.70;99.90;;;;;;4876382;29;20453;-90
2022/09/18 07:43:14;;;;;;;2.00;1.83;;;10.70;99.90;;;;;;4879720;29;20432;-90
2022/09/18 07:45:40;;;;;;;3.50;2.03;;;10.60;99.90;;;;;;4880171;29;20283;-91
2022/09/18 07:48:06;;;;;;;2.00;1.90;;;10.50;99.90;;;;;;4873693;29;20196;-92
2022/09/18 07:50:40;;;;;;;7.33;2.40;;;10.70;99.90;;;;;;4889379;29;20185;-92
2022/09/18 07:53:08;;;;;;;2.33;1.70;;;10.70;99.90;;;;;;4872964;29;20476;-89
2022/09/18 07:55:37;;;;;;;2.63;2.00;;;10.80;99.90;;;;;;4889346;29;20543;-90
2022/09/18 07:58:07;;;;;;;2.50;2.30;;;10.90;99.90;;;;;;4879815;29;20542;-91
2022/09/18 08:00:36;;;;;;;2.10;2.00;;;10.90;99.90;;;;;;4878266;29;20471;-90
2022/09/18 08:03:13;;;;;;;1.93;1.83;;;10.90;99.90;;;;;;4873560;29;21465;-93
2022/09/18 08:05:50;;;;;;;;;;;;;;;;;;;;;
2022/09/18 08:08:29;;;;;;;1.60;1.50;;;11.20;99.90;;;;;;4886696;29;20470;-90
2022/09/18 08:10:59;;;;;;;3.40;1.60;;;11.10;99.90;;;;;;4876797;29;20952;-90
2022/09/18 08:13:25;;;;;;;2.40;1.93;;;11.10;99.90;;;;;;4890032;29;20832;-88
2022/09/18 08:15:50;;;;;;;3.60;1.70;;;11.20;99.90;;;;;;4873480;29;20449;-89
2022/09/18 08:18:20;;;;;;;2.10;1.50;;;11.20;99.90;;;;;;4887539;29;20192;-88
2022/09/18 08:20:45;;;;;;;2.00;1.77;;;11.20;99.90;;;;;;4883715;29;20638;-91
2022/09/18 08:23:14;;;;;;;3.57;1.53;;;11.20;99.90;;;;;;4882280;29;20456;-90
2022/09/18 08:25:40;;;;;;;1.73;1.50;;;11.20;99.90;;;;;;4899304;29;20826;-87
2022/09/18 08:28:06;;;;;;;1.70;1.40;;;11.00;99.90;;;;;;4880628;29;20484;-91
2022/09/18 08:30:35;;;;;;;2.70;1.50;;;11.00;99.90;;;;;;4879458;29;20440;-91
2022/09/18 08:33:04;;;;;;;1.40;1.30;;;10.90;99.90;;;;;;4880378;29;20463;-91
2022/09/18 08:35:33;;;;;;;2.30;1.60;;;10.80;99.90;;;;;;4902862;29;20436;-92
2022/09/18 08:37:59;;;;;;;1.70;1.43;;;10.90;99.90;;;;;;4889271;29;21015;-93
2022/09/18 08:40:50;;;;;;;1.60;1.50;;;11.10;99.90;;;;;;4886211;29;20452;-92
2022/09/18 08:43:25;;;;;;;1.50;1.40;;;11.20;99.90;;;;;;4898426;29;20457;-90
2022/09/18 08:46:02;;;;;;;1.47;1.37;;;11.10;99.90;;;;;;4885600;29;20460;-90
2022/09/18 08:49:13;;;;;;;1.50;1.20;;;11.10;99.90;;;;;;4897207;29;20484;-92
2022/09/18 08:51:58;;;;;;;1.43;1.30;;;11.00;99.90;;;;;;4863330;29;20987;-92
2022/09/18 08:55:03;;;;;;;1.40;1.30;;;11.00;99.90;;;;;;4901726;29;20843;-92
2022/09/18 08:58:15;;;;;;;1.63;1.53;;;10.90;99.90;;;;;;4877789;29;21245;-91
2022/09/18 09:00:50;;;;;;;2.30;1.67;;;11.10;99.90;;;;;;4877128;29;20922;-91
2022/09/18 09:03:37;;;;;;;2.03;1.93;;;11.20;99.90;;;;;;4884005;29;20514;-91
2022/09/18 09:06:34;;;;;;;2.13;2.00;;;11.10;99.90;;;;;;4883107;29;20911;-89
2022/09/18 09:09:05;;;;;;;1.47;1.37;;;11.20;99.90;;;;;;4900088;29;21102;-90
2022/09/18 09:12:02;;;;;;;1.93;1.53;;;11.10;99.90;;;;;;4902108;29;20472;-94
2022/09/18 09:14:44;;;;;;;1.60;1.50;;;11.00;99.90;;;;;;4886135;29;20530;-94
2022/09/18 09:17:26;;;;;;;2.30;1.33;;;11.00;99.90;;;;;;4877793;29;20439;-94
2022/09/18 09:20:00;;;;;;;1.20;1.20;;;11.10;99.90;;;;;;4883798;29;20459;-92
2022/09/18 09:23:00;;;;;;;4.17;3.00;;;11.10;99.90;;;;;;4896255;29;20445;-92
2022/09/18 09:29:05;;;;;;;3.50;1.53;;;11.20;99.90;;;;;;4899894;23;20571;-95
2022/09/18 09:31:42;;;;;;;2.17;1.80;;;11.30;99.90;;;;;;4873247;29;20476;-95
2022/09/18 09:34:25;;;;;;;1.60;1.50;;;11.50;99.90;;;;;;4877602;29;20484;-93
2022/09/18 09:36:57;;;;;;;2.33;1.90;;;11.60;99.90;;;;;;4875562;29;20482;-93
2022/09/18 09:42:37;;;;;;;2.67;1.80;;;11.70;99.90;;;;;;5056273;27;20550;-87
2022/09/18 09:45:28;;;;;;;3.43;1.60;;;11.50;99.90;;;;;;5045529;28;20472;-87
2022/09/18 09:48:04;;;;;;;2.20;1.80;;;11.50;99.90;;;;;;5052160;28;20453;-86
2022/09/18 09:50:54;;;;;;;2.30;1.50;;;11.60;99.90;;;;;;5059453;28;20529;-88
2022/09/18 09:53:24;;;;;;;3.60;1.80;;;11.70;99.90;;;;;;5047102;28;20743;-88
2022/09/18 09:56:18;;;;;;;3.27;2.20;;;11.80;99.90;;;;;;5056251;28;20441;-88
2022/09/18 09:59:04;;;;;;;2.10;1.90;;;12.00;99.90;;;;;;5052856;28;20439;-89
2022/09/18 10:01:40;;;;;;;3.07;1.50;;;12.10;99.90;;;;;;5056012;28;20568;-88
2022/09/18 10:04:33;;;;;;;3.80;1.70;;;12.10;99.90;;;;;;5056914;28;20965;-88
2022/09/18 10:07:16;;;;;;;2.20;1.80;;;12.20;99.90;;;;;;5060226;28;20761;-88
2022/09/18 10:10:16;;;;;;;1.80;1.30;;;12.70;99.90;;;;;;5079653;28;20534;-83
2022/09/18 10:12:53;;;;;;;1.40;1.30;;;13.20;99.90;;;;;;5058234;28;20486;-88
2022/09/18 10:15:39;;;;;;;1.57;1.20;;;13.40;99.90;;;;;;5055595;28;24699;-89
2022/09/18 10:18:16;;;;;;;1.33;1.23;;;13.30;99.90;;;;;;5052847;28;20474;-91
2022/09/18 10:27:35;;;;;;;1.90;1.37;;;13.40;99.90;;;;;;5146695;22;20503;-90
2022/09/18 10:30:13;;;;;;;2.13;1.23;;;13.80;99.90;;;;;;5034835;28;20441;-89
2022/09/18 10:32:44;;;;;;;2.30;1.20;;;13.80;99.90;;;;;;5033031;28;20443;-88
2022/09/18 10:35:41;;;;;;;1.63;1.30;;;13.70;99.90;;;;;;5041463;28;20437;-90
2022/09/18 10:38:28;;;;;;;7.20;1.50;;;13.90;99.90;;;;;;5047502;28;20523;-89
2022/09/18 10:40:54;;;;;;;3.83;1.23;;;13.80;99.90;;;;;;5038107;28;21052;-88
2022/09/18 10:43:22;;;;;;;4.77;1.43;;;13.60;99.90;;;;;;5048877;28;20437;-88
2022/09/18 10:45:54;;;;;;;5.13;1.30;;;13.60;99.90;;;;;;5042226;28;20175;-89
2022/09/18 10:48:29;;;;;;;1.53;1.43;;;13.60;99.90;;;;;;5050614;28;20433;-90
2022/09/18 10:50:57;;;;;;;2.30;1.63;;;13.90;99.90;;;;;;5048607;28;20437;-88
2022/09/18 10:53:28;;;;;;;1.93;1.20;;;13.80;99.90;;;;;;5040141;28;20449;-89
2022/09/18 10:55:57;;;;;;;1.27;1.17;;;13.70;99.90;;;;;;5040106;28;20434;-90
2022/09/18 10:58:29;;;;;;;3.60;1.07;;;13.70;99.90;;;;;;5040164;28;20441;-90
2022/09/18 11:01:00;;;;;;;2.93;1.20;;;13.80;99.90;;;;;;5036169;28;20481;-91
2022/09/18 11:03:39;;;;;;;2.40;1.57;;;13.60;99.90;;;;;;5032453;28;20499;-90
2022/09/18 11:06:14;;;;;;;3.30;2.20;;;13.60;99.90;;;;;;5042155;28;20444;-90
2022/09/18 11:08:45;;;;;;;2.90;2.57;;;13.60;99.90;;;;;;5025750;28;20513;-90
2022/09/18 11:11:29;;;;;;;1.20;1.10;;;13.50;99.90;;;;;;5029187;28;20747;-90
2022/09/18 11:14:16;;;;;;;2.13;1.23;;;13.40;99.90;;;;;;5027061;28;20447;-90
2022/09/18 11:16:46;;;;;;;1.27;1.20;;;13.50;99.90;;;;;;5026876;28;20450;-90
2022/09/18 11:19:37;;;;;;;1.60;1.10;;;13.60;99.90;;;;;;5029259;28;20453;-90
2022/09/18 11:22:47;;;;;;;2.37;1.60;;;13.50;99.90;;;;;;5023203;28;20476;-91
2022/09/18 11:25:33;;;;;;;2.00;1.50;;;13.60;99.90;;;;;;5028797;28;20470;-89
2022/09/18 11:28:48;;;;;;;2.50;1.50;;;14.00;99.90;;;;;;5022725;28;20452;-89
2022/09/18 11:34:56;;;;;;;3.37;1.10;;;14.60;99.90;;;;;;5022879;28;20974;-89
2022/09/18 11:38:05;;;;;;;2.00;1.00;;;14.70;99.90;;;;;;5020711;28;20449;-89
2022/09/18 11:40:32;;;;;;;2.20;0.90;;;14.90;99.90;;;;;;5039177;28;20999;-88
2022/09/18 11:43:04;;;;;;;3.70;1.60;;;14.80;99.90;;;;;;5026128;28;20969;-88
2022/09/18 11:46:00;;;;;;;1.53;1.10;;;15.00;99.90;;;;;;5031882;28;20581;-88
2022/09/18 11:48:33;;;;;;;1.53;1.30;;;14.90;99.90;;;;;;5029335;28;20441;-87
2022/09/18 11:51:11;;;;;;;2.40;1.37;;;15.00;99.90;;;;;;5027782;28;20444;-88
2022/09/18 11:53:45;;;;;;;1.80;1.10;;;15.30;99.90;;;;;;5027734;28;20437;-88
2022/09/18 11:56:16;;;;;;;2.43;1.17;;;15.10;99.90;;;;;;5025585;28;20445;-87
2022/09/18 11:58:53;;;;;;;4.57;1.23;;;14.70;99.90;;;;;;5028559;28;20776;-89
2022/09/18 12:01:37;;;;;;;2.70;0.90;;;14.20;99.90;;;;;;5029665;28;20488;-88
2022/09/18 12:04:12;;;;;;;1.47;0.90;;;14.00;99.90;;;;;;5023278;28;21914;-89
2022/09/18 12:06:43;;;;;;;5.73;1.17;;;13.70;99.90;;;;;;5021422;28;20434;-88
2022/09/18 12:09:25;;;;;;;4.70;1.17;;;13.60;99.90;;;;;;5029786;28;20430;-88
2022/09/18 12:12:03;;;;;;;1.03;1.00;;;13.50;99.90;;;;;;5025417;28;20935;-88
2022/09/18 12:14:43;;;;;;;1.60;1.20;;;13.40;99.90;;;;;;5024679;28;20858;-88
2022/09/18 12:17:28;;;;;;;3.03;1.20;;;13.30;99.90;;;;;;5023114;28;20437;-87
2022/09/18 12:20:04;;;;;;;3.33;1.80;;;13.10;99.90;;;;;;5024691;28;20473;-87
2022/09/18 12:22:54;;;;;;;1.53;1.13;;;13.10;99.90;;;;;;5023735;28;20551;-87
2022/09/18 12:25:36;;;;;;;3.50;1.10;;;13.20;99.90;;;;;;5029944;28;20445;-87
2022/09/18 12:28:29;;;;;;;1.67;1.10;;;13.20;99.90;;;;;;5022792;28;20536;-89
2022/09/18 12:31:16;;;;;;;2.93;1.23;;;13.50;99.90;;;;;;5023015;28;20782;-89
2022/09/18 12:33:56;;;;;;;1.40;1.03;;;13.80;99.90;;;;;;5022219;28;20438;-87
2022/09/18 12:36:42;;;;;;;2.00;1.50;;;13.70;99.90;;;;;;5024970;28;20457;-87
2022/09/18 12:39:43;;;;;;;1.90;1.60;;;13.70;99.90;;;;;;5028524;28;20431;-89
2022/09/18 12:42:39;;;;;;;1.67;1.10;;;13.80;99.90;;;;;;5024708;28;20629;-87
2022/09/18 12:45:43;;;;;;;2.83;1.50;;;13.70;99.90;;;;;;5023177;28;20554;-89
2022/09/18 12:48:22;;;;;;;1.93;1.20;;;13.80;99.90;;;;;;5021580;28;20438;-89
2022/09/18 12:51:07;;;;;;;2.37;1.30;;;14.00;99.90;;;;;;5025949;28;20507;-87
2022/09/18 12:53:53;;;;;;;4.13;1.23;;;14.20;99.90;;;;;;5033002;28;20453;-87
2022/09/18 12:56:52;;;;;;;4.13;1.20;;;14.80;99.90;;;;;;5028517;28;20442;-86
2022/09/18 12:59:27;;;;;;;1.77;1.30;;;15.30;99.90;;;;;;5025065;28;20436;-88
2022/09/18 13:02:05;;;;;;;1.30;1.20;;;15.20;99.90;;;;;;5026666;28;20517;-86
2022/09/18 13:04:54;;;;;;;3.23;1.10;;;15.50;99.10;;;;;;5021433;28;20799;-86
2022/09/18 13:07:28;;;;;;;2.53;1.33;;;14.80;99.10;;;;;;5020705;28;21767;-85
2022/09/18 13:10:17;;;;;;;0.83;0.77;;;14.60;99.60;;;;;;5029538;28;20464;-86
2022/09/18 13:12:51;;;;;;;0.80;0.80;;;14.40;99.70;;;;;;5014833;28;20437;-86
2022/09/18 13:15:41;;;;;;;3.07;0.97;;;14.40;99.90;;;;;;5021431;28;20446;-86
2022/09/18 13:18:15;;;;;;;1.27;0.90;;;14.60;99.80;;;;;;5024905;28;20446;-87
2022/09/18 13:20:44;;;;;;;1.97;1.10;;;14.70;98.30;;;;;;5019293;28;20498;-85
2022/09/18 13:23:32;;;;;;;3.20;1.47;;;14.50;97.80;;;;;;5022875;28;20496;-87
2022/09/18 13:25:58;;;;;;;1.60;1.30;;;14.30;99.10;;;;;;5021328;28;20443;-88
2022/09/18 13:28:26;;;;;;;2.90;1.03;;;14.60;99.70;;;;;;5021135;28;21023;-86
2022/09/18 13:31:14;;;;;;;1.70;1.30;;;14.70;98.70;;;;;;5022580;28;20453;-86
2022/09/18 13:33:52;;;;;;;3.37;1.90;;;14.70;98.40;;;;;;5017265;28;20803;-87
2022/09/18 13:36:27;;;;;;;1.53;0.90;;;14.70;97.50;;;;;;5021077;28;20712;-86
2022/09/18 13:38:56;;;;;;;2.47;1.00;;;14.70;96.00;;;;;;5033109;28;20437;-85
2022/09/18 13:41:22;;;;;;;0.77;0.77;;;14.40;94.50;;;;;;5038464;28;20508;-87
2022/09/18 13:43:54;;;;;;;1.17;0.87;;;14.20;94.80;;;;;;5036929;28;20446;-87
2022/09/18 13:46:39;;;;;;;1.17;0.90;;;14.10;95.60;;;;;;5039457;28;20871;-86
2022/09/18 13:49:17;;;;;;;1.17;0.80;;;14.20;96.40;;;;;;5037438;28;20808;-86
2022/09/18 13:51:43;;;;;;;1.20;1.10;;;14.10;95.80;;;;;;5035839;28;20545;-86